Grayburg, Texas
Current Conditions -  °F | °C
As of 7:35 PM on Friday 21 Nov 2014 (Local Time) from KBMT Reporting Station
Overcast Overcast  
Wind Chill: 62°   Ceiling: 4500
Heat Index: 62°   Visibility: 10mi
Dew Point: 54°   Wind: 15mph
Humidity: 75%   Direction: 120°ESE
Pressure: 30.17"   Gusts: 22mph
Location:  30.1611°N, 94.4087°W
Report Text: KBMT 220135Z AUTO 12013G19KT 10SM OVC045 17/12 A3017 RMK AO2 T01680124
Loading
Personal Weather Stations






























Interactive Weather Map New forecast layout! Learn more

10-Day Weather Forecast

Advertisements
Track Severe Weather on mobile